Terminal Aerodrome Forecast
Issued by NWS

Home | Current Version | Previous Version | Graphics & Text | Print | Product List | Glossary On
Versions: 1 2 3 4 5 6 7 8 9 10 11 12
000
FTUS43 KMPX 152324
TAFAXN
TAF
KAXN 152324Z 1600/1624 32014G19KT P6SM SCT100
     FM160500 31010KT P6SM SKC
     FM161300 25010KT P6SM SKC
     FM161900 21013G18KT P6SM SKC=

USA.gov is the U.S. government's official web portal to all federal, state and local government web resources and services.